createdAt,value
2018-04-12T00:00:49.513Z,76.68
2018-04-12T00:03:17.220Z,76.68
2018-04-12T00:05:44.789Z,76.74
2018-04-12T00:08:12.513Z,77.08
2018-04-12T00:10:40.100Z,76.99
2018-04-12T00:13:07.689Z,76.97
2018-04-12T00:15:35.368Z,77.20
2018-04-12T00:18:03.014Z,76.97
2018-04-12T00:20:31.085Z,76.60
2018-04-12T00:22:58.817Z,75.99
2018-04-12T00:25:26.445Z,75.88
2018-04-12T00:27:54.064Z,76.32
2018-04-12T00:30:22.092Z,76.42
2018-04-12T00:32:49.737Z,75.94
2018-04-12T00:35:17.316Z,75.61
2018-04-12T00:37:45.014Z,75.74
2018-04-12T00:40:12.638Z,76.06
2018-04-12T00:42:40.213Z,76.62
2018-04-12T00:45:08.827Z,76.84
2018-04-12T00:47:36.408Z,76.51
2018-04-12T00:50:03.998Z,76.83
2018-04-12T00:52:31.738Z,77.12
2018-04-12T00:54:59.386Z,76.67
2018-04-12T00:57:27.035Z,76.59
2018-04-12T00:59:54.661Z,76.08
2018-04-12T01:02:22.244Z,76.61
2018-04-12T01:04:49.891Z,76.54
2018-04-12T01:07:17.668Z,76.70
2018-04-12T01:09:45.249Z,77.77
2018-04-12T01:12:13.146Z,77.39
2018-04-12T01:14:41.906Z,77.05
2018-04-12T01:17:09.486Z,78.13
2018-04-12T01:19:37.157Z,78.33
2018-04-12T01:22:05.422Z,78.24
2018-04-12T01:24:33.716Z,77.78
2018-04-12T01:27:01.360Z,77.15
2018-04-12T01:29:28.986Z,77.99
2018-04-12T01:31:56.691Z,78.08
2018-04-12T01:34:24.329Z,78.07
2018-04-12T01:36:52.057Z,77.90
2018-04-12T01:39:19.629Z,78.06
2018-04-12T01:41:47.204Z,78.11
2018-04-12T01:44:15.024Z,77.60
2018-04-12T01:46:42.625Z,78.55
2018-04-12T01:49:10.271Z,79.15
2018-04-12T01:51:37.987Z,79.36
2018-04-12T01:54:05.668Z,78.91
2018-04-12T01:56:33.305Z,78.76
2018-04-12T01:59:00.980Z,78.82
2018-04-12T02:01:28.616Z,78.98
2018-04-12T02:03:56.202Z,79.31
2018-04-12T02:06:23.977Z,79.17
2018-04-12T02:08:51.581Z,78.32
2018-04-12T02:11:19.214Z,78.86
2018-04-12T02:13:46.968Z,79.36
2018-04-12T02:16:14.607Z,79.05
2018-04-12T02:18:42.231Z,79.44
2018-04-12T02:21:09.877Z,78.82
2018-04-12T02:23:37.616Z,78.85
2018-04-12T02:26:05.254Z,78.30
2018-04-12T02:28:33.007Z,78.30
2018-04-12T02:31:00.590Z,78.71
2018-04-12T02:33:28.178Z,79.10
2018-04-12T02:35:55.810Z,78.94
2018-04-12T02:38:23.449Z,79.34
2018-04-12T02:40:51.027Z,79.33
2018-04-12T02:43:18.666Z,79.31
2018-04-12T02:45:46.313Z,79.29
2018-04-12T02:48:13.949Z,79.34
2018-04-12T02:50:42.685Z,78.90
2018-04-12T02:53:10.341Z,79.03
2018-04-12T02:55:37.989Z,78.86
2018-04-12T02:58:05.720Z,79.01
2018-04-12T03:00:33.293Z,78.88
2018-04-12T03:03:00.951Z,78.69
2018-04-12T03:05:28.613Z,78.34
2018-04-12T03:07:56.199Z,77.83
2018-04-12T03:10:23.772Z,78.61
2018-04-12T03:12:51.564Z,79.78
2018-04-12T03:15:19.140Z,79.76
2018-04-12T03:17:46.716Z,79.68
2018-04-12T03:20:14.855Z,79.02
2018-04-12T03:22:42.430Z,78.72
2018-04-12T03:25:10.880Z,78.80
2018-04-12T03:27:38.508Z,78.99
2018-04-12T03:30:06.149Z,78.46
2018-04-12T03:32:33.786Z,78.42
2018-04-12T03:35:01.513Z,78.64
2018-04-12T03:37:29.145Z,79.22
2018-04-12T03:39:56.780Z,79.56
2018-04-12T03:42:24.508Z,79.07
2018-04-12T03:44:52.120Z,78.71
2018-04-12T03:47:19.760Z,79.00
2018-04-12T03:49:47.453Z,79.52
2018-04-12T03:52:15.044Z,79.94
2018-04-12T03:54:42.623Z,80.54
2018-04-12T03:57:10.340Z,80.08
2018-04-12T03:59:37.916Z,79.77
2018-04-12T04:02:05.579Z,79.07
2018-04-12T04:04:33.204Z,79.45
2018-04-12T04:07:00.776Z,79.49
2018-04-12T04:09:28.409Z,79.60
2018-04-12T04:11:56.101Z,79.80
2018-04-12T04:14:35.354Z,79.90
2018-04-12T04:17:14.799Z,79.91
2018-04-12T04:19:54.320Z,80.10
2018-04-12T04:22:22.048Z,80.49
2018-04-12T04:24:49.681Z,80.25
2018-04-12T04:27:17.354Z,79.86
2018-04-12T04:29:45.037Z,79.92
2018-04-12T04:32:12.648Z,80.04
2018-04-12T04:34:42.249Z,80.47
2018-04-12T04:37:09.989Z,80.22
2018-04-12T04:39:37.621Z,79.89
2018-04-12T04:42:05.218Z,78.77
2018-04-12T04:44:33.609Z,78.10
2018-04-12T04:47:01.247Z,77.40
2018-04-12T04:49:28.867Z,76.98
2018-04-12T04:51:56.510Z,76.48
2018-04-12T04:54:24.963Z,75.08
2018-04-12T04:56:52.581Z,74.33
2018-04-12T04:59:20.262Z,74.55
2018-04-12T05:01:47.887Z,73.39
2018-04-12T05:04:15.521Z,74.24
2018-04-12T05:06:43.252Z,73.14
2018-04-12T05:09:10.872Z,72.83
2018-04-12T05:11:38.507Z,72.49
2018-04-12T05:14:06.290Z,69.44
2018-04-12T05:16:33.866Z,65.69
2018-04-12T05:19:01.518Z,61.47
2018-04-12T05:21:29.147Z,59.72
2018-04-12T05:23:56.739Z,57.52
2018-04-12T05:26:24.433Z,56.75
2018-04-12T05:28:52.221Z,53.91
2018-04-12T05:31:19.803Z,52.44
2018-04-12T05:33:47.381Z,50.64
2018-04-12T05:36:15.063Z,50.47
2018-04-12T05:38:42.652Z,50.47
2018-04-12T05:41:10.287Z,49.76
2018-04-12T05:43:37.920Z,49.79
2018-04-12T05:46:05.507Z,49.75
2018-04-12T05:48:33.157Z,48.02
2018-04-12T05:51:01.510Z,47.91
2018-04-12T05:53:29.093Z,47.62
2018-04-12T05:55:56.666Z,48.23
2018-04-12T05:58:24.382Z,46.94
2018-04-12T06:00:51.968Z,46.65
2018-04-12T06:03:19.543Z,47.00
2018-04-12T06:05:47.184Z,44.10
2018-04-12T06:08:14.761Z,44.86
2018-04-12T06:10:42.345Z,42.83
2018-04-12T06:13:10.621Z,44.55
2018-04-12T06:15:38.260Z,42.84
2018-04-12T06:18:05.855Z,42.45
2018-04-12T06:20:33.514Z,43.65
2018-04-12T06:23:01.090Z,45.09
2018-04-12T06:25:28.672Z,43.04
2018-04-12T06:27:56.360Z,42.85
2018-04-12T06:30:24.344Z,40.85
2018-04-12T06:32:51.936Z,43.29
2018-04-12T06:35:19.644Z,44.64
2018-04-12T06:37:47.224Z,44.00
2018-04-12T06:40:14.811Z,46.71
2018-04-12T06:42:43.259Z,48.62
2018-04-12T06:45:10.943Z,47.36
2018-04-12T06:47:38.527Z,49.94
2018-04-12T06:50:06.299Z,49.51
2018-04-12T06:52:33.940Z,49.60
2018-04-12T06:55:01.520Z,51.91
2018-04-12T06:57:29.329Z,51.52
2018-04-12T06:59:56.917Z,52.63
2018-04-12T07:02:24.501Z,54.33
2018-04-12T07:04:52.228Z,52.67
2018-04-12T07:07:19.855Z,53.17
2018-04-12T07:09:47.444Z,54.25
2018-04-12T07:12:15.106Z,52.75
2018-04-12T07:14:42.672Z,52.10
2018-04-12T07:17:10.272Z,52.35
2018-04-12T07:19:37.985Z,52.82
2018-04-12T07:22:05.600Z,53.34
2018-04-12T07:24:33.193Z,54.23
2018-04-12T07:27:01.278Z,53.64
2018-04-12T07:29:28.856Z,53.90
2018-04-12T07:31:56.607Z,53.67
2018-04-12T07:34:24.360Z,53.19
2018-04-12T07:36:51.948Z,53.40
2018-04-12T07:39:19.536Z,52.56
2018-04-12T07:41:47.256Z,51.28
2018-04-12T07:44:14.886Z,51.04
2018-04-12T07:46:42.471Z,53.77
2018-04-12T07:49:10.097Z,52.81
2018-04-12T07:51:37.996Z,52.24
2018-04-12T07:54:05.632Z,52.74
2018-04-12T07:56:33.245Z,52.13
2018-04-12T07:59:00.884Z,51.13
2018-04-12T08:01:28.549Z,50.45
2018-04-12T08:03:56.225Z,50.74
2018-04-12T08:06:23.803Z,51.72
2018-04-12T08:08:52.064Z,52.02
2018-04-12T08:11:19.700Z,50.75
2018-04-12T08:13:47.289Z,51.13
2018-04-12T08:16:14.935Z,51.51
2018-04-12T08:18:42.674Z,52.14
2018-04-12T08:21:11.246Z,51.67
2018-04-12T08:23:38.829Z,51.81
2018-04-12T08:26:06.463Z,51.87
2018-04-12T08:28:34.041Z,51.23
2018-04-12T08:31:01.683Z,51.41
2018-04-12T08:33:29.573Z,52.45
2018-04-12T08:35:57.212Z,51.56
2018-04-12T08:38:24.796Z,51.32
2018-04-12T08:40:52.416Z,50.27
2018-04-12T08:43:20.009Z,49.98
2018-04-12T08:45:47.590Z,48.72
2018-04-12T08:48:15.285Z,49.62
2018-04-12T08:50:42.869Z,49.29
2018-04-12T08:53:10.537Z,51.53
2018-04-12T08:55:38.228Z,48.88
2018-04-12T08:58:05.799Z,48.78
2018-04-12T09:00:33.398Z,50.92
2018-04-12T09:03:01.120Z,49.42
2018-04-12T09:05:28.693Z,50.37
2018-04-12T09:07:56.284Z,50.08
2018-04-12T09:10:23.913Z,49.08
2018-04-12T09:12:51.544Z,48.40
2018-04-12T09:15:19.123Z,48.46
2018-04-12T09:17:46.849Z,49.81
2018-04-12T09:20:14.506Z,49.75
2018-04-12T09:22:42.146Z,49.07
2018-04-12T09:25:09.843Z,49.01
2018-04-12T09:27:37.481Z,48.44
2018-04-12T09:30:05.064Z,49.84
2018-04-12T09:32:32.757Z,49.90
2018-04-12T09:35:00.390Z,48.13
2018-04-12T09:37:27.985Z,47.42
2018-04-12T09:39:55.764Z,48.55
2018-04-12T09:42:23.449Z,48.63
2018-04-12T09:44:51.032Z,46.77
2018-04-12T09:47:18.668Z,48.34
2018-04-12T09:49:46.297Z,49.20
2018-04-12T09:52:14.078Z,48.95
2018-04-12T09:54:41.708Z,47.26
2018-04-12T09:57:09.340Z,47.25
2018-04-12T09:59:36.984Z,47.62
2018-04-12T10:02:04.745Z,47.64
2018-04-12T10:04:32.376Z,47.45
2018-04-12T10:07:06.141Z,48.32
2018-04-12T10:09:33.725Z,47.59
2018-04-12T10:12:01.364Z,49.74
2018-04-12T10:14:29.067Z,48.56
2018-04-12T10:16:56.644Z,49.45
2018-04-12T10:19:24.276Z,47.08
2018-04-12T10:21:51.984Z,45.94
2018-04-12T10:24:19.584Z,46.64
2018-04-12T10:26:47.238Z,44.70
2018-04-12T10:29:14.930Z,48.53
2018-04-12T10:31:42.540Z,46.36
2018-04-12T10:34:10.124Z,45.74
2018-04-12T10:36:37.907Z,45.71
2018-04-12T10:39:05.629Z,44.33
2018-04-12T10:41:33.321Z,44.28
2018-04-12T10:44:01.102Z,44.15
2018-04-12T10:46:31.558Z,43.60
2018-04-12T10:48:59.189Z,44.79
2018-04-12T10:51:26.944Z,44.13
2018-04-12T10:53:54.596Z,45.41
2018-04-12T10:56:22.214Z,42.61
2018-04-12T10:58:49.947Z,44.10
2018-04-12T11:01:17.594Z,43.25
2018-04-12T11:03:45.176Z,42.84
2018-04-12T11:06:12.878Z,43.84
2018-04-12T11:08:40.516Z,43.56
2018-04-12T11:11:08.089Z,43.49
2018-04-12T11:13:35.712Z,45.06
2018-04-12T11:16:03.355Z,44.76
2018-04-12T11:18:31.089Z,47.40
2018-04-12T11:20:58.960Z,44.24
2018-04-12T11:23:27.371Z,44.63
2018-04-12T11:25:55.040Z,44.62
2018-04-12T11:28:22.693Z,44.81
2018-04-12T11:30:50.284Z,44.94
2018-04-12T11:33:17.892Z,43.44
2018-04-12T11:35:45.656Z,42.72
2018-04-12T11:38:13.442Z,43.25
2018-04-12T11:40:41.077Z,42.41
2018-04-12T11:43:08.764Z,42.90
2018-04-12T11:45:36.409Z,43.39
2018-04-12T11:48:04.054Z,43.71
2018-04-12T11:50:31.685Z,43.37
2018-04-12T11:52:59.340Z,41.65
2018-04-12T11:55:26.946Z,42.73
2018-04-12T11:58:14.559Z,43.87
2018-04-12T12:00:42.336Z,44.75
2018-04-12T12:03:10.057Z,44.12
2018-04-12T12:05:37.713Z,43.63
2018-04-12T12:08:06.705Z,42.65
2018-04-12T12:10:34.329Z,43.40
2018-04-12T12:13:02.014Z,42.29
2018-04-12T12:15:29.689Z,43.37
2018-04-12T12:17:57.318Z,41.87
2018-04-12T12:20:24.897Z,40.95
2018-04-12T12:22:52.481Z,38.51
2018-04-12T12:25:20.105Z,39.04
2018-04-12T12:27:47.679Z,39.35
2018-04-12T12:30:15.263Z,37.40
2018-04-12T12:32:42.962Z,37.64
2018-04-12T12:35:10.550Z,36.90
2018-04-12T12:37:38.120Z,37.05
2018-04-12T12:40:05.984Z,37.51
2018-04-12T12:42:33.560Z,37.53
2018-04-12T12:45:01.613Z,38.20
2018-04-12T12:47:29.312Z,39.01
2018-04-12T12:49:56.977Z,38.74
2018-04-12T12:52:24.600Z,40.15
2018-04-12T12:54:52.290Z,40.39
2018-04-12T12:57:19.943Z,43.08
2018-04-12T12:59:47.579Z,42.26
2018-04-12T13:02:16.225Z,39.80
2018-04-12T13:04:43.876Z,40.58
2018-04-12T13:07:11.512Z,41.17
2018-04-12T13:09:39.138Z,40.50
2018-04-12T13:12:07.408Z,40.88
2018-04-12T13:14:35.041Z,41.62
2018-04-12T13:17:02.678Z,41.41
2018-04-12T13:19:30.277Z,43.62
2018-04-12T13:21:57.848Z,43.05
2018-04-12T13:24:25.508Z,41.09
2018-04-12T13:26:53.189Z,40.25
2018-04-12T13:29:20.823Z,41.16
2018-04-12T13:31:48.563Z,41.99
2018-04-12T13:34:16.145Z,41.61
2018-04-12T13:36:43.752Z,42.22
2018-04-12T13:39:11.454Z,43.49
2018-04-12T13:41:39.235Z,42.22
2018-04-12T13:44:06.878Z,41.88
2018-04-12T13:46:34.605Z,41.78
2018-04-12T13:49:02.225Z,42.71
2018-04-12T13:51:29.844Z,42.24
2018-04-12T13:53:57.568Z,43.97
2018-04-12T13:56:25.213Z,42.73
2018-04-12T13:58:52.783Z,43.23
2018-04-12T14:01:20.505Z,42.33
2018-04-12T14:03:48.082Z,41.75
2018-04-12T14:06:15.668Z,43.27
2018-04-12T14:08:43.312Z,43.17
2018-04-12T14:11:10.897Z,42.94
2018-04-12T14:13:38.485Z,42.74
2018-04-12T14:16:06.129Z,43.26
2018-04-12T14:18:33.708Z,43.42
2018-04-12T14:21:01.373Z,43.17
2018-04-12T14:23:29.954Z,43.76
2018-04-12T14:25:58.458Z,43.74
2018-04-12T14:28:27.224Z,43.15
2018-04-12T14:30:55.809Z,43.51
2018-04-12T14:33:23.437Z,43.87
2018-04-12T14:35:51.019Z,43.33
2018-04-12T14:38:19.674Z,44.16
2018-04-12T14:40:47.261Z,44.27
2018-04-12T14:43:15.098Z,44.53
2018-04-12T14:45:42.823Z,44.69
2018-04-12T14:48:10.478Z,44.82
2018-04-12T14:50:38.113Z,45.22
2018-04-12T14:53:05.738Z,44.86
2018-04-12T14:55:33.398Z,44.66
2018-04-12T14:58:00.981Z,44.20
2018-04-12T15:00:28.601Z,44.13
2018-04-12T15:02:56.200Z,44.27
2018-04-12T15:05:23.833Z,44.17
2018-04-12T15:07:51.626Z,44.25
2018-04-12T15:10:19.199Z,44.20
2018-04-12T15:12:47.697Z,43.82
2018-04-12T15:15:15.320Z,44.20
2018-04-12T15:17:42.953Z,44.42
2018-04-12T15:20:10.528Z,44.48
2018-04-12T15:22:38.161Z,44.47
2018-04-12T15:25:05.744Z,44.64
2018-04-12T15:27:33.339Z,44.74
2018-04-12T15:30:01.013Z,45.63
2018-04-12T15:32:28.596Z,45.87
2018-04-12T15:34:56.204Z,45.53
2018-04-12T15:37:23.901Z,45.88
2018-04-12T15:39:51.553Z,45.92
2018-04-12T15:42:19.141Z,46.05
2018-04-12T15:44:48.120Z,46.17
2018-04-12T15:47:15.720Z,45.81
2018-04-12T15:49:43.301Z,46.34
2018-04-12T15:52:11.043Z,45.83
2018-04-12T15:54:39.173Z,45.82
2018-04-12T15:57:06.751Z,46.18
2018-04-12T15:59:34.389Z,46.40
2018-04-12T16:02:02.610Z,45.80
2018-04-12T16:04:31.069Z,46.09
2018-04-12T16:06:58.768Z,47.20
2018-04-12T16:09:26.421Z,47.52
2018-04-12T16:11:54.002Z,48.41
2018-04-12T16:14:21.697Z,48.76
2018-04-12T16:16:49.345Z,48.51
2018-04-12T16:19:16.957Z,48.89
2018-04-12T16:21:44.719Z,49.35
2018-04-12T16:24:12.300Z,49.67
2018-04-12T16:26:39.941Z,49.55
2018-04-12T16:29:07.628Z,49.77
2018-04-12T16:31:35.276Z,50.06
2018-04-12T16:34:02.844Z,50.20
2018-04-12T16:36:30.539Z,50.22
2018-04-12T16:38:58.175Z,49.85
2018-04-12T16:41:25.801Z,50.70
2018-04-12T16:43:53.424Z,50.83
2018-04-12T16:46:21.202Z,50.70
2018-04-12T16:48:48.784Z,50.66
2018-04-12T16:51:16.461Z,51.08
2018-04-12T16:53:44.045Z,51.47
2018-04-12T16:56:11.681Z,50.75
2018-04-12T16:58:39.373Z,51.30
2018-04-12T17:01:06.980Z,51.56
2018-04-12T17:03:34.560Z,51.89
2018-04-12T17:06:02.342Z,51.39
2018-04-12T17:08:29.929Z,51.06
2018-04-12T17:10:57.585Z,51.17
2018-04-12T17:13:25.302Z,51.51
2018-04-12T17:15:52.882Z,52.34
2018-04-12T17:18:21.093Z,51.94
2018-04-12T17:20:48.731Z,52.04
2018-04-12T17:23:16.312Z,51.86
2018-04-12T17:25:43.895Z,51.71
2018-04-12T17:28:11.577Z,52.17
2018-04-12T17:30:39.146Z,52.01
2018-04-12T17:33:06.726Z,52.23
2018-04-12T17:35:34.356Z,52.28
2018-04-12T17:38:02.027Z,52.63
2018-04-12T17:40:29.611Z,52.90
2018-04-12T17:42:57.438Z,53.92
2018-04-12T17:45:25.857Z,54.63
2018-04-12T17:47:53.683Z,55.55
2018-04-12T17:50:21.397Z,55.79
2018-04-12T17:52:48.964Z,56.20
2018-04-12T17:55:16.544Z,56.33
2018-04-12T17:57:44.175Z,56.44
2018-04-12T18:00:11.807Z,56.72
2018-04-12T18:02:39.380Z,56.91
2018-04-12T18:05:07.112Z,57.20
2018-04-12T18:07:34.753Z,57.55
2018-04-12T18:10:02.542Z,57.28
2018-04-12T18:12:30.329Z,57.64
2018-04-12T18:14:57.964Z,58.23
2018-04-12T18:17:25.536Z,58.02
2018-04-12T18:19:53.340Z,58.32
2018-04-12T18:22:20.928Z,58.48
2018-04-12T18:24:48.505Z,58.32
2018-04-12T18:27:16.255Z,58.25
2018-04-12T18:29:43.828Z,58.17
2018-04-12T18:32:11.472Z,57.91
2018-04-12T18:34:39.083Z,57.75
2018-04-12T18:37:06.686Z,57.52
2018-04-12T18:39:34.258Z,57.79
2018-04-12T18:42:02.005Z,57.59
2018-04-12T18:44:29.584Z,57.38
2018-04-12T18:46:57.217Z,57.25
2018-04-12T18:49:24.897Z,57.26
2018-04-12T18:51:52.532Z,57.03
2018-04-12T18:54:20.106Z,56.62
2018-04-12T18:56:47.858Z,56.19
2018-04-12T18:59:15.464Z,56.31
2018-04-12T19:01:43.142Z,55.31
2018-04-12T19:04:10.847Z,55.47
2018-04-12T19:06:38.452Z,55.38
2018-04-12T19:09:06.948Z,55.68
2018-04-12T19:11:34.873Z,55.54
2018-04-12T19:14:03.347Z,55.03
2018-04-12T19:16:30.936Z,54.76
2018-04-12T19:18:59.346Z,54.53
2018-04-12T19:21:26.935Z,53.63
2018-04-12T19:23:54.579Z,53.52
2018-04-12T19:26:22.267Z,53.13
2018-04-12T19:28:49.905Z,52.89
2018-04-12T19:31:17.496Z,53.21
2018-04-12T19:33:45.360Z,52.79
2018-04-12T19:36:12.987Z,53.02
2018-04-12T19:38:40.640Z,52.48
2018-04-12T19:41:08.366Z,52.12
2018-04-12T19:43:36.040Z,52.27
2018-04-12T19:46:03.636Z,51.75
2018-04-12T19:48:31.406Z,51.45
2018-04-12T19:50:59.139Z,51.05
2018-04-12T19:53:26.723Z,51.02
2018-04-12T19:55:54.656Z,51.59
2018-04-12T19:58:22.316Z,51.38
2018-04-12T20:00:49.916Z,50.85
2018-04-12T20:03:17.767Z,50.80
2018-04-12T20:05:45.414Z,51.30
2018-04-12T20:08:12.999Z,50.93
2018-04-12T20:10:40.696Z,50.98
2018-04-12T20:13:08.317Z,51.42
2018-04-12T20:15:35.910Z,50.66
2018-04-12T20:18:03.556Z,50.43
2018-04-12T20:20:31.209Z,50.55
2018-04-12T20:22:58.850Z,51.08
2018-04-12T20:25:26.479Z,50.83
2018-04-12T20:27:54.052Z,51.60
2018-04-12T20:30:21.632Z,52.52
2018-04-12T20:32:49.494Z,52.14
2018-04-12T20:35:17.083Z,53.01
2018-04-12T20:37:44.688Z,53.46
2018-04-12T20:40:12.336Z,53.23
2018-04-12T20:42:39.926Z,54.31
2018-04-12T20:45:07.547Z,54.78
2018-04-12T20:47:35.200Z,54.73
2018-04-12T20:50:02.793Z,55.49
2018-04-12T20:52:30.478Z,55.42
2018-04-12T20:54:58.123Z,55.83
2018-04-12T20:57:25.712Z,55.68
2018-04-12T20:59:53.295Z,56.25
2018-04-12T21:02:21.009Z,56.29
2018-04-12T21:04:48.623Z,56.84
2018-04-12T21:07:16.223Z,56.95
2018-04-12T21:09:44.126Z,57.46
2018-04-12T21:12:11.705Z,57.67
2018-04-12T21:14:39.290Z,58.25
2018-04-12T21:17:07.174Z,58.05
2018-04-12T21:19:34.812Z,58.58
2018-04-12T21:22:02.396Z,58.89
2018-04-12T21:24:30.019Z,59.49
2018-04-12T21:26:57.712Z,58.87
2018-04-12T21:29:25.293Z,58.76
2018-04-12T21:31:52.990Z,58.92
2018-04-12T21:34:20.616Z,59.69
2018-04-12T21:36:48.207Z,59.90
2018-04-12T21:39:15.896Z,59.59
2018-04-12T21:41:43.527Z,59.52
2018-04-12T21:44:11.120Z,59.58
2018-04-12T21:46:38.871Z,59.60
2018-04-12T21:49:06.468Z,59.79
2018-04-12T21:51:34.050Z,59.84
2018-04-12T21:54:01.821Z,60.24
2018-04-12T21:56:29.391Z,60.79
2018-04-12T21:58:56.972Z,60.70
2018-04-12T22:01:24.842Z,59.64
2018-04-12T22:03:52.448Z,60.00
2018-04-12T22:06:20.132Z,59.62
2018-04-12T22:08:47.820Z,61.26
2018-04-12T22:11:15.489Z,61.63
2018-04-12T22:13:43.086Z,61.56
2018-04-12T22:16:10.910Z,61.96
2018-04-12T22:18:38.588Z,61.48
2018-04-12T22:21:06.196Z,62.07
2018-04-12T22:23:33.891Z,62.55
2018-04-12T22:26:01.509Z,62.93
2018-04-12T22:28:29.112Z,63.08
2018-04-12T22:30:56.834Z,63.46
2018-04-12T22:33:24.437Z,63.49
2018-04-12T22:35:52.051Z,64.02
2018-04-12T22:38:20.025Z,64.11
2018-04-12T22:40:47.640Z,64.73
2018-04-12T22:43:15.307Z,65.07
2018-04-12T22:45:42.957Z,64.72
2018-04-12T22:48:10.564Z,64.36
2018-04-12T22:50:38.243Z,63.34
2018-04-12T22:53:06.082Z,63.05
2018-04-12T22:55:33.941Z,62.78
2018-04-12T22:58:01.552Z,62.53
2018-04-12T23:00:29.214Z,63.37
2018-04-12T23:02:56.885Z,63.94
2018-04-12T23:05:24.512Z,64.67
2018-04-12T23:07:53.308Z,65.12
2018-04-12T23:10:20.937Z,65.42
2018-04-12T23:12:48.549Z,66.40
2018-04-12T23:15:16.944Z,66.50
2018-04-12T23:17:44.549Z,67.08
2018-04-12T23:20:12.228Z,66.96
2018-04-12T23:22:39.894Z,67.02
2018-04-12T23:25:07.613Z,67.58
2018-04-12T23:27:35.287Z,67.38
2018-04-12T23:30:02.972Z,67.04
2018-04-12T23:32:30.588Z,67.14
2018-04-12T23:34:58.266Z,66.75
2018-04-12T23:37:25.962Z,67.05
2018-04-12T23:39:53.575Z,67.71
2018-04-12T23:42:21.259Z,68.32
2018-04-12T23:44:48.935Z,68.81
2018-04-12T23:47:16.540Z,69.18
2018-04-12T23:49:44.212Z,69.44
2018-04-12T23:52:12.225Z,69.89
2018-04-12T23:54:40.597Z,69.46
2018-04-12T23:57:08.376Z,68.84
2018-04-12T23:59:36.127Z,69.33
